Time;durP1;ratioP1;P1;durP2;ratioP2;P2;SDS_P1;SDS_P2;PMS_P1;PMS_P2;Temp;Humidity;BMP_temperature;BMP_pressure;BME280_temperature;BME280_humidity;BME280_pressure;Samples;Min_cycle;Max_cycle;Signal;HPM_P1;HPM_P2
2021/10/29 00:01:44;;;;;;;;;239.75;229.50;13.00;44.60;;;;;;5035655;28;8818;-61
2021/10/29 00:04:10;;;;;;;;;259.50;247.00;13.00;44.50;;;;;;5035835;28;8788;-60
2021/10/29 00:06:35;;;;;;;;;254.75;231.00;12.90;44.50;;;;;;5036224;28;8770;-61
2021/10/29 00:09:02;;;;;;;;;216.00;193.00;12.90;44.70;;;;;;5035667;28;9407;-60
2021/10/29 00:11:28;;;;;;;;;212.75;209.75;12.90;44.80;;;;;;5035008;28;8765;-60
2021/10/29 00:13:54;;;;;;;;;230.00;214.50;12.90;44.70;;;;;;5035630;28;8766;-60
2021/10/29 00:16:20;;;;;;;;;207.50;202.25;12.80;45.00;;;;;;5035412;28;8851;-60
2021/10/29 00:18:46;;;;;;;;;221.00;208.25;12.80;45.00;;;;;;5035575;28;8785;-59
2021/10/29 00:21:12;;;;;;;;;244.75;225.50;12.80;45.10;;;;;;5035427;28;8806;-60
2021/10/29 00:23:37;;;;;;;;;256.50;236.00;12.70;45.00;;;;;;5051086;28;8774;-60
2021/10/29 00:26:03;;;;;;;;;217.50;203.00;12.70;45.10;;;;;;5035439;28;8794;-60
2021/10/29 00:28:29;;;;;;;;;231.25;218.50;12.70;45.00;;;;;;5035387;28;8796;-60
2021/10/29 00:30:55;;;;;;;;;240.00;226.75;12.70;45.10;;;;;;5035295;28;8790;-61
2021/10/29 00:33:21;;;;;;;;;240.25;219.25;12.60;45.10;;;;;;5035302;28;8785;-60
2021/10/29 00:35:47;;;;;;;;;204.75;193.75;12.60;45.10;;;;;;5035252;28;8800;-60
2021/10/29 00:38:13;;;;;;;;;252.75;234.00;12.40;45.30;;;;;;5034983;28;8813;-60
2021/10/29 00:40:42;;;;;;;;;268.00;244.00;12.10;45.70;;;;;;5035149;28;9451;-60
2021/10/29 00:43:09;;;;;;;;;271.00;255.75;12.20;45.60;;;;;;5035362;28;8801;-60
2021/10/29 00:45:35;;;;;;;;;244.25;224.00;12.30;45.40;;;;;;5035010;28;8765;-59
2021/10/29 00:48:02;;;;;;;;;252.00;233.00;12.30;45.20;;;;;;5035305;28;8798;-59
2021/10/29 00:50:28;;;;;;;;;235.00;212.50;12.40;45.30;;;;;;5035224;28;8761;-59
2021/10/29 00:52:54;;;;;;;;;186.00;173.75;12.30;45.10;;;;;;5034925;28;8789;-60
2021/10/29 00:55:21;;;;;;;;;168.00;160.25;12.20;45.30;;;;;;5035152;28;8765;-59
2021/10/29 00:57:50;;;;;;;;;171.25;162.50;12.10;45.50;;;;;;5034877;28;8773;-60
2021/10/29 01:00:17;;;;;;;;;160.75;150.00;12.20;45.40;;;;;;5034824;28;8919;-60
2021/10/29 01:02:43;;;;;;;;;163.25;158.50;12.20;45.50;;;;;;5034673;28;8923;-59
2021/10/29 01:05:09;;;;;;;;;156.75;150.00;12.20;45.40;;;;;;5034743;28;8888;-60
2021/10/29 01:07:35;;;;;;;;;148.00;143.25;12.10;45.70;;;;;;5034708;28;8776;-60
2021/10/29 01:10:02;;;;;;;;;143.75;139.00;12.10;45.80;;;;;;5034930;28;8766;-60
2021/10/29 01:12:28;;;;;;;;;148.50;143.00;12.10;46.00;;;;;;5034629;28;8761;-60
2021/10/29 01:14:59;;;;;;;;;145.25;136.50;12.10;45.80;;;;;;5034829;28;8783;-59
2021/10/29 01:17:26;;;;;;;;;170.75;157.50;12.10;46.00;;;;;;5034848;28;8809;-60
2021/10/29 01:19:53;;;;;;;;;142.75;135.50;12.10;45.80;;;;;;5034586;28;8871;-59
2021/10/29 01:22:21;;;;;;;;;160.25;153.25;12.10;46.00;;;;;;5034274;28;8904;-59
2021/10/29 01:24:47;;;;;;;;;172.50;160.50;12.10;45.90;;;;;;5034463;28;8781;-59
2021/10/29 01:27:15;;;;;;;;;171.00;167.75;12.00;45.90;;;;;;5066527;28;8773;-59
2021/10/29 01:29:42;;;;;;;;;177.00;166.50;12.00;46.20;;;;;;5034387;28;8856;-59
2021/10/29 01:32:09;;;;;;;;;168.75;162.25;12.00;46.20;;;;;;5034390;28;8773;-59
2021/10/29 01:34:36;;;;;;;;;163.50;156.00;12.00;46.10;;;;;;5034607;28;8777;-58
2021/10/29 01:37:06;;;;;;;;;162.00;161.75;12.00;46.20;;;;;;5034130;28;8813;-59
2021/10/29 01:39:32;;;;;;;;;180.50;170.00;12.00;46.10;;;;;;5034270;28;9466;-59
2021/10/29 01:41:58;;;;;;;;;177.75;167.50;11.90;46.00;;;;;;5034444;28;8813;-58
2021/10/29 01:44:23;;;;;;;;;182.75;177.75;11.90;46.30;;;;;;5034217;28;8795;-59
2021/10/29 01:46:49;;;;;;;;;187.00;179.25;11.90;46.50;;;;;;5034192;28;8790;-60
2021/10/29 01:49:16;;;;;;;;;163.25;154.25;11.90;46.50;;;;;;5034237;28;8769;-58
2021/10/29 01:51:43;;;;;;;;;172.75;167.00;11.90;46.70;;;;;;5034208;28;8860;-58
2021/10/29 01:54:09;;;;;;;;;176.75;166.00;11.90;47.30;;;;;;5034440;28;8754;-58
2021/10/29 01:56:35;;;;;;;;;168.75;159.00;11.80;47.80;;;;;;5032720;28;9455;-58
2021/10/29 01:59:01;;;;;;;;;169.75;162.25;11.70;48.00;;;;;;5034075;28;8778;-58
2021/10/29 02:01:26;;;;;;;;;167.50;162.00;11.70;48.40;;;;;;5034074;28;8810;-58
2021/10/29 02:03:52;;;;;;;;;166.75;162.00;11.70;48.60;;;;;;5034070;28;8778;-57
2021/10/29 02:06:19;;;;;;;;;152.25;146.50;11.70;50.00;;;;;;5034063;28;8758;-57
2021/10/29 02:08:47;;;;;;;;;178.25;162.50;11.70;49.10;;;;;;5034311;28;8855;-58
2021/10/29 02:11:13;;;;;;;;;169.50;161.25;11.60;49.40;;;;;;5034233;28;8761;-58
2021/10/29 02:13:39;;;;;;;;;168.50;157.25;11.60;49.50;;;;;;5034205;28;8882;-60
2021/10/29 02:16:06;;;;;;;;;182.75;171.25;11.60;50.00;;;;;;5034211;28;9543;-58
2021/10/29 02:18:32;;;;;;;;;172.00;166.00;11.50;48.90;;;;;;5034176;28;8813;-59
2021/10/29 02:20:58;;;;;;;;;166.00;160.00;11.50;48.90;;;;;;5033819;28;8774;-60
2021/10/29 02:23:25;;;;;;;;;142.00;134.75;11.50;49.00;;;;;;5034200;28;9435;-58
2021/10/29 02:25:50;;;;;;;;;147.00;140.50;11.50;49.20;;;;;;5034188;28;8808;-58
2021/10/29 02:28:19;;;;;;;;;149.50;147.75;11.50;49.30;;;;;;5033854;28;9419;-59
2021/10/29 02:30:46;;;;;;;;;149.00;140.25;11.50;49.40;;;;;;5033824;28;8858;-58
2021/10/29 02:33:13;;;;;;;;;142.50;137.50;11.50;49.20;;;;;;5039439;28;8787;-57
2021/10/29 02:35:39;;;;;;;;;149.50;147.25;11.40;49.10;;;;;;5056077;28;8863;-58
2021/10/29 02:38:05;;;;;;;;;165.75;158.25;11.30;49.10;;;;;;5057245;28;8819;-58
2021/10/29 02:40:31;;;;;;;;;156.25;149.25;11.30;49.30;;;;;;5057624;28;9565;-58
2021/10/29 02:42:58;;;;;;;;;146.50;144.00;11.30;49.30;;;;;;5057554;28;8837;-58
2021/10/29 02:45:23;;;;;;;;;145.25;137.25;11.30;49.10;;;;;;5057557;28;8810;-57
2021/10/29 02:47:49;;;;;;;;;152.75;148.75;11.30;49.20;;;;;;5057441;28;8795;-57
2021/10/29 02:50:17;;;;;;;;;154.25;146.25;11.30;49.30;;;;;;5057258;28;8791;-60
2021/10/29 02:52:43;;;;;;;;;149.25;142.00;11.30;49.00;;;;;;5057162;28;8806;-58
2021/10/29 02:55:11;;;;;;;;;132.75;130.75;11.30;48.90;;;;;;5057396;28;8774;-57
2021/10/29 02:57:37;;;;;;;;;157.00;144.00;11.30;48.80;;;;;;5056727;28;8821;-57
2021/10/29 03:00:08;;;;;;;;;137.00;130.75;11.30;49.10;;;;;;5056991;28;8763;-58
2021/10/29 03:02:34;;;;;;;;;132.00;130.00;11.30;49.20;;;;;;5056847;28;8802;-58
2021/10/29 03:05:01;;;;;;;;;143.75;137.50;11.30;49.20;;;;;;5057186;28;8755;-58
2021/10/29 03:07:26;;;;;;;;;143.00;127.50;11.30;49.00;;;;;;5056816;28;8802;-61
2021/10/29 03:09:53;;;;;;;;;136.50;132.00;11.20;48.80;;;;;;5056653;28;8767;-57
2021/10/29 03:12:19;;;;;;;;;135.25;130.50;11.20;48.80;;;;;;5056714;28;8774;-58
2021/10/29 03:14:45;;;;;;;;;118.50;110.25;11.20;48.60;;;;;;5056891;28;8802;-57
2021/10/29 03:17:11;;;;;;;;;134.00;130.00;11.00;48.50;;;;;;5056723;28;8802;-57
2021/10/29 03:19:37;;;;;;;;;135.25;126.75;11.10;48.50;;;;;;5056868;28;8795;-59
2021/10/29 03:22:03;;;;;;;;;133.75;133.75;10.90;48.30;;;;;;5056555;28;8806;-58
2021/10/29 03:24:28;;;;;;;;;131.50;127.75;10.80;48.60;;;;;;5056855;28;8856;-58
2021/10/29 03:26:54;;;;;;;;;131.25;127.25;10.90;48.60;;;;;;5056401;28;9421;-59
2021/10/29 03:29:20;;;;;;;;;135.00;133.00;11.00;48.40;;;;;;5056785;28;8791;-58
2021/10/29 03:31:46;;;;;;;;;140.75;134.50;11.00;47.90;;;;;;5056466;28;8799;-58
2021/10/29 03:34:12;;;;;;;;;147.75;142.25;10.90;47.80;;;;;;5056461;28;8763;-58
2021/10/29 03:36:39;;;;;;;;;131.50;125.25;10.90;47.60;;;;;;5056277;28;8818;-58
2021/10/29 03:39:18;;;;;;;;;139.50;133.00;10.80;47.70;;;;;;5055168;28;8806;-58
2021/10/29 03:41:54;;;;;;;;;134.00;123.50;10.90;47.40;;;;;;5056214;28;8876;-58
2021/10/29 03:44:45;;;;;;;;;128.00;127.00;10.80;47.10;;;;;;5056262;28;8794;-59
2021/10/29 03:47:12;;;;;;;;;134.75;128.75;10.80;46.90;;;;;;5056270;28;9437;-59
2021/10/29 03:49:52;;;;;;;;;135.25;131.75;10.80;46.70;;;;;;5056350;28;8809;-58
2021/10/29 03:52:29;;;;;;;;;127.00;122.25;10.80;46.80;;;;;;5056049;28;8893;-58
2021/10/29 03:54:57;;;;;;;;;127.00;123.25;10.80;46.80;;;;;;5056221;28;8797;-58
2021/10/29 03:57:27;;;;;;;;;137.50;132.50;10.70;46.80;;;;;;5056120;28;8762;-59
2021/10/29 03:59:55;;;;;;;;;147.00;137.50;10.60;48.00;;;;;;5055965;28;8775;-58
2021/10/29 04:02:22;;;;;;;;;133.50;130.25;10.60;47.30;;;;;;5055721;28;8814;-58
2021/10/29 04:04:49;;;;;;;;;149.50;142.25;10.60;47.50;;;;;;5056005;28;8770;-58
2021/10/29 04:07:14;;;;;;;;;146.75;132.75;10.50;47.50;;;;;;5055696;28;8782;-58
2021/10/29 04:09:43;;;;;;;;;154.25;148.75;10.50;47.70;;;;;;5055704;28;8771;-59
2021/10/29 04:12:10;;;;;;;;;147.00;141.75;10.50;48.00;;;;;;5055867;28;8766;-58
2021/10/29 04:14:36;;;;;;;;;147.00;139.25;10.50;48.40;;;;;;5055638;28;8844;-58
2021/10/29 04:17:02;;;;;;;;;138.25;134.50;10.50;48.20;;;;;;5055582;28;8799;-58
2021/10/29 04:19:28;;;;;;;;;138.00;132.00;10.50;47.60;;;;;;5055539;28;8798;-59
2021/10/29 04:21:54;;;;;;;;;137.75;130.00;10.50;47.40;;;;;;5055334;28;8826;-59
2021/10/29 04:24:19;;;;;;;;;135.25;131.50;10.50;47.40;;;;;;5055419;28;8860;-58
2021/10/29 04:26:45;;;;;;;;;134.25;129.75;10.50;47.50;;;;;;5055331;28;8790;-58
2021/10/29 04:29:15;;;;;;;;;138.00;131.50;10.50;47.30;;;;;;5055369;28;8891;-58
2021/10/29 04:31:50;;;;;;;;;134.25;127.75;10.50;47.50;;;;;;5055771;28;8766;-58
2021/10/29 04:34:24;;;;;;;;;160.00;150.25;10.50;47.40;;;;;;5055199;28;8885;-59
2021/10/29 04:36:52;;;;;;;;;151.25;144.00;10.50;47.40;;;;;;5054975;28;8883;-58
2021/10/29 04:39:19;;;;;;;;;150.50;145.75;10.50;47.70;;;;;;5046927;28;8801;-58
2021/10/29 04:41:50;;;;;;;;;156.00;149.50;10.50;47.60;;;;;;5046250;28;8825;-58
2021/10/29 04:44:20;;;;;;;;;156.00;145.50;10.40;47.50;;;;;;5048163;28;8767;-58
2021/10/29 04:46:47;;;;;;;;;169.25;163.00;10.40;47.80;;;;;;5046438;28;8854;-59
2021/10/29 04:49:13;;;;;;;;;161.25;156.25;10.40;48.00;;;;;;5038717;28;8886;-58
2021/10/29 04:51:39;;;;;;;;;167.50;160.25;10.40;47.90;;;;;;5034915;28;8816;-58
2021/10/29 04:54:05;;;;;;;;;152.00;146.75;10.40;47.80;;;;;;5035057;28;8778;-58
2021/10/29 04:56:31;;;;;;;;;162.00;155.00;10.30;47.90;;;;;;5045959;28;8777;-58
2021/10/29 04:58:57;;;;;;;;;159.75;152.75;10.30;48.00;;;;;;5034572;28;9509;-58
2021/10/29 05:01:22;;;;;;;;;159.00;151.00;10.40;47.90;;;;;;5034742;28;8805;-58
2021/10/29 05:03:49;;;;;;;;;164.50;154.25;10.40;47.70;;;;;;5005357;28;10808;-58
2021/10/29 05:06:15;;;;;;;;;176.75;174.00;10.40;47.60;;;;;;5032107;28;8890;-59
2021/10/29 05:08:41;;;;;;;;;169.75;163.75;10.40;47.60;;;;;;5031875;28;8872;-59
2021/10/29 05:11:08;;;;;;;;;163.00;156.25;10.30;47.70;;;;;;5032461;28;9056;-59
2021/10/29 05:13:34;;;;;;;;;166.50;157.00;10.30;47.80;;;;;;5032270;28;8765;-59
2021/10/29 05:16:00;;;;;;;;;155.00;151.00;10.20;47.80;;;;;;5032519;28;9781;-59
2021/10/29 05:18:26;;;;;;;;;158.50;151.75;10.20;47.90;;;;;;5032458;28;8809;-59
2021/10/29 05:20:53;;;;;;;;;160.75;157.50;10.20;48.10;;;;;;5032285;28;8770;-59
2021/10/29 05:23:19;;;;;;;;;163.00;159.00;10.10;48.20;;;;;;5032356;28;8878;-59
2021/10/29 05:25:45;;;;;;;;;153.50;152.25;10.10;48.10;;;;;;5032179;28;8785;-60
2021/10/29 05:28:11;;;;;;;;;165.50;159.00;10.20;48.20;;;;;;5032342;28;8801;-59
2021/10/29 05:30:37;;;;;;;;;180.25;173.50;10.20;48.00;;;;;;5032156;28;8782;-59
2021/10/29 05:33:03;;;;;;;;;191.00;181.75;10.20;48.20;;;;;;5032643;28;8860;-59
2021/10/29 05:35:30;;;;;;;;;223.25;206.00;10.20;48.20;;;;;;5031475;28;8769;-60
2021/10/29 05:37:56;;;;;;;;;225.75;205.25;10.20;48.60;;;;;;5034071;28;8839;-60
2021/10/29 05:40:21;;;;;;;;;205.25;195.75;10.20;48.60;;;;;;5034222;28;8794;-59
2021/10/29 05:42:47;;;;;;;;;211.50;201.50;10.10;48.90;;;;;;5034258;28;8809;-59
2021/10/29 05:45:13;;;;;;;;;234.25;219.50;10.10;48.80;;;;;;5034189;28;8773;-59
2021/10/29 05:47:40;;;;;;;;;238.25;216.00;10.10;49.40;;;;;;5033973;28;8836;-58
2021/10/29 05:50:11;;;;;;;;;198.00;188.25;10.10;49.00;;;;;;5034325;28;8785;-59
2021/10/29 05:52:43;;;;;;;;;205.50;194.50;10.00;48.40;;;;;;5034102;28;8900;-59
2021/10/29 05:55:14;;;;;;;;;183.50;176.75;10.00;48.30;;;;;;5033995;28;8915;-59
2021/10/29 05:57:47;;;;;;;;;180.00;174.00;10.00;48.30;;;;;;5033983;28;9453;-59
2021/10/29 06:00:17;;;;;;;;;192.25;179.25;10.00;48.20;;;;;;5034076;28;8799;-59
2021/10/29 06:02:44;;;;;;;;;199.00;194.50;10.00;48.10;;;;;;5034189;28;8821;-59
2021/10/29 06:05:11;;;;;;;;;195.50;186.25;10.00;48.20;;;;;;5034304;28;8774;-59
2021/10/29 06:07:37;;;;;;;;;172.00;166.25;9.90;48.10;;;;;;5033922;28;8793;-59
2021/10/29 06:10:08;;;;;;;;;195.50;182.25;9.90;48.30;;;;;;5035817;28;8799;-60
2021/10/29 06:12:37;;;;;;;;;190.00;182.75;9.90;48.50;;;;;;5037965;28;8782;-60
2021/10/29 06:15:04;;;;;;;;;175.50;166.25;10.00;48.40;;;;;;5037902;28;8777;-59
2021/10/29 06:17:31;;;;;;;;;170.50;167.00;9.90;48.00;;;;;;5038037;28;8890;-59
2021/10/29 06:19:57;;;;;;;;;164.00;159.50;10.00;48.10;;;;;;5037755;28;8809;-59
2021/10/29 06:22:46;;;;;;;;;167.75;160.25;9.90;47.80;;;;;;5037687;28;8809;-59
2021/10/29 06:25:15;;;;;;;;;175.25;168.75;9.90;48.00;;;;;;5037696;28;8789;-60
2021/10/29 06:30:25;;;;;;;;;159.00;146.75;9.80;49.30;;;;;;5037699;28;8777;-64
2021/10/29 06:32:51;;;;;;;;;158.75;151.00;9.90;49.00;;;;;;5037719;28;8812;-66
2021/10/29 06:35:17;;;;;;;;;158.25;151.25;9.80;48.50;;;;;;5037495;28;8935;-63
2021/10/29 06:37:43;;;;;;;;;171.50;163.25;9.80;48.80;;;;;;5037303;28;8798;-64
2021/10/29 06:40:13;;;;;;;;;160.00;151.75;9.80;48.40;;;;;;5037429;28;8812;-65
2021/10/29 06:42:39;;;;;;;;;156.00;149.00;9.90;49.00;;;;;;5037126;28;8801;-60
2021/10/29 06:47:43;;;;;;;;;160.25;154.25;9.90;49.10;;;;;;5037407;28;8841;-62
2021/10/29 07:01:01;;;;;;;;;145.25;141.00;10.00;49.90;;;;;;5037082;28;8750;-62
2021/10/29 07:41:36;;;;;;;;;150.50;144.75;10.80;49.60;;;;;;5036264;28;8797;-65
2021/10/29 07:44:12;;;;;;;;;179.50;167.75;10.90;49.50;;;;;;5036136;28;8797;-59
2021/10/29 07:46:38;;;;;;;;;177.00;164.75;11.10;49.50;;;;;;5036300;28;8801;-58
2021/10/29 07:49:06;;;;;;;;;161.50;156.00;11.10;49.10;;;;;;5035569;28;8804;-66
2021/10/29 07:51:32;;;;;;;;;156.25;154.00;11.20;50.30;;;;;;5036351;28;8778;-60
2021/10/29 07:53:58;;;;;;;;;169.75;159.25;11.30;49.70;;;;;;5036195;28;8770;-58
2021/10/29 07:56:24;;;;;;;;;172.75;169.75;11.40;49.30;;;;;;5036423;28;8773;-65
2021/10/29 07:58:50;;;;;;;;;187.75;178.00;11.40;49.10;;;;;;5035793;28;8796;-60
2021/10/29 08:01:15;;;;;;;;;189.75;182.75;11.50;49.10;;;;;;5035653;28;8816;-61
2021/10/29 08:03:41;;;;;;;;;196.75;186.00;11.50;49.40;;;;;;5035229;28;8769;-59
2021/10/29 08:06:07;;;;;;;;;188.00;184.00;11.60;49.20;;;;;;5034719;28;8786;-59
2021/10/29 08:08:33;;;;;;;;;182.75;170.75;11.60;49.20;;;;;;5035912;28;8774;-59
2021/10/29 08:10:59;;;;;;;;;178.50;169.25;11.70;49.10;;;;;;5035685;28;8912;-60
2021/10/29 08:13:25;;;;;;;;;180.25;172.25;11.90;48.80;;;;;;5035498;28;8866;-60
2021/10/29 08:15:53;;;;;;;;;189.00;175.50;11.90;48.80;;;;;;5035756;28;9548;-64
2021/10/29 08:18:21;;;;;;;;;191.25;180.00;12.00;48.50;;;;;;5034916;28;8840;-64
2021/10/29 08:20:47;;;;;;;;;204.25;194.75;12.10;48.60;;;;;;5035373;28;8840;-57
2021/10/29 08:23:13;;;;;;;;;214.25;202.75;12.20;48.00;;;;;;5035077;28;8817;-61
2021/10/29 08:25:39;;;;;;;;;206.00;193.25;12.10;48.00;;;;;;5035053;28;8789;-61
2021/10/29 08:28:06;;;;;;;;;201.00;188.00;12.20;48.10;;;;;;5035376;28;8786;-60
2021/10/29 08:30:32;;;;;;;;;218.50;205.50;12.40;48.10;;;;;;5035549;28;8774;-58
2021/10/29 08:32:58;;;;;;;;;213.25;202.75;12.40;47.70;;;;;;5034357;28;8805;-58
2021/10/29 08:35:24;;;;;;;;;227.50;213.50;12.40;47.70;;;;;;5035181;28;8876;-62
2021/10/29 08:37:51;;;;;;;;;221.50;207.75;12.50;47.80;;;;;;5035068;28;8804;-58
2021/10/29 08:40:20;;;;;;;;;229.50;221.25;12.60;48.00;;;;;;5035018;28;8801;-56
2021/10/29 08:42:46;;;;;;;;;246.25;238.25;12.80;47.90;;;;;;5035054;28;8805;-60
2021/10/29 08:45:13;;;;;;;;;236.00;223.50;12.80;47.60;;;;;;5034937;28;8786;-60
2021/10/29 08:47:43;;;;;;;;;214.75;204.00;12.90;47.70;;;;;;5035309;28;8805;-61
2021/10/29 08:50:14;;;;;;;;;229.25;212.00;13.00;47.80;;;;;;5034967;28;8789;-60
2021/10/29 08:52:44;;;;;;;;;215.50;203.75;13.00;47.50;;;;;;5034878;28;8805;-60
2021/10/29 08:55:12;;;;;;;;;217.25;205.50;13.20;47.70;;;;;;5033651;28;8805;-61
2021/10/29 08:57:39;;;;;;;;;240.00;224.25;13.20;47.40;;;;;;5034910;28;8781;-61
2021/10/29 09:00:13;;;;;;;;;237.00;221.25;13.20;46.90;;;;;;5034968;28;8789;-60
2021/10/29 09:03:18;;;;;;;;;222.75;216.50;13.20;47.20;;;;;;5034848;28;8801;-61
2021/10/29 09:05:50;;;;;;;;;227.00;213.50;13.30;47.20;;;;;;5034757;28;8777;-60
2021/10/29 09:31:29;;;;;;;;;169.50;168.00;14.20;47.30;;;;;;5034384;28;9522;-61
2021/10/29 09:34:02;;;;;;;;;183.25;177.75;14.40;47.30;;;;;;5034272;28;8789;-60
2021/10/29 09:36:36;;;;;;;;;177.75;173.50;14.50;47.10;;;;;;5034349;28;9589;-61
2021/10/29 09:39:12;;;;;;;;;195.00;184.75;14.60;46.70;;;;;;5034328;28;8853;-65
2021/10/29 09:41:39;;;;;;;;;185.00;175.00;14.70;46.50;;;;;;5034197;28;8790;-61
2021/10/29 09:44:10;;;;;;;;;190.00;177.00;14.70;47.10;;;;;;5037432;28;8791;-61
2021/10/29 09:46:48;;;;;;;;;178.00;165.25;14.70;47.40;;;;;;5040867;28;8890;-66
2021/10/29 09:49:20;;;;;;;;;174.00;168.50;14.90;47.20;;;;;;5041029;28;8769;-65
2021/10/29 09:52:50;;;;;;;;;191.50;175.00;15.00;47.20;;;;;;5040633;28;8904;-61
2021/10/29 09:57:25;;;;;;;;;192.00;184.25;15.40;46.30;;;;;;5040831;28;8799;-61
2021/10/29 09:59:56;;;;;;;;;180.75;172.75;15.70;46.00;;;;;;5040666;28;8851;-63
2021/10/29 10:02:24;;;;;;;;;191.25;185.00;16.10;45.20;;;;;;5040453;28;8821;-62
2021/10/29 10:04:58;;;;;;;;;191.75;186.75;16.60;44.60;;;;;;5040888;28;9594;-63
2021/10/29 10:07:33;;;;;;;;;207.25;197.75;16.90;43.10;;;;;;5040746;28;8800;-62
2021/10/29 10:10:01;;;;;;;;;188.25;180.75;17.50;42.20;;;;;;5040632;28;8777;-62
2021/10/29 10:12:37;;;;;;;;;200.00;188.00;17.90;41.00;;;;;;5040811;28;8828;-62
2021/10/29 10:15:05;;;;;;;;;206.00;195.25;18.40;40.10;;;;;;5040818;28;8868;-62
2021/10/29 10:17:32;;;;;;;;;197.00;184.50;18.70;39.10;;;;;;5040303;28;8797;-62
2021/10/29 10:20:00;;;;;;;;;195.25;186.25;19.10;38.20;;;;;;5040606;28;8808;-62
2021/10/29 10:22:28;;;;;;;;;175.25;169.00;19.60;37.90;;;;;;5040255;28;8813;-62
2021/10/29 10:25:04;;;;;;;;;184.00;175.50;20.00;36.60;;;;;;5040601;28;8770;-62
2021/10/29 10:47:45;;;;;;;;;145.25;141.25;28.40;25.00;;;;;;4979221;28;8815;-65
2021/10/29 10:50:28;;;;;;;;;143.00;139.00;29.30;24.60;;;;;;4979199;28;8852;-67
2021/10/29 10:53:14;;;;;;;;;144.50;137.75;29.90;23.60;;;;;;4979220;28;8783;-65
2021/10/29 10:55:52;;;;;;;;;150.00;148.75;30.50;23.20;;;;;;4976909;28;9524;-67
2021/10/29 11:01:17;;;;;;;;;133.25;132.50;31.60;22.20;;;;;;4976033;28;8779;-65
2021/10/29 11:04:16;;;;;;;;;121.75;121.75;32.20;21.50;;;;;;4975964;28;8837;-65
2021/10/29 11:09:55;;;;;;;;;122.50;119.75;33.30;20.80;;;;;;4975843;28;8973;-65
2021/10/29 11:12:43;;;;;;;;;113.75;112.25;33.70;20.60;;;;;;4975858;28;8795;-63
2021/10/29 11:15:16;;;;;;;;;119.25;115.75;33.90;20.00;;;;;;4993413;28;8781;-64
2021/10/29 11:17:52;;;;;;;;;102.25;99.75;33.80;20.00;;;;;;5037040;28;8794;-64
2021/10/29 11:20:41;;;;;;;;;106.50;105.25;34.30;19.90;;;;;;5036686;28;8773;-65
2021/10/29 11:23:10;;;;;;;;;108.25;107.25;34.90;19.80;;;;;;5036763;28;8833;-66
2021/10/29 11:26:04;;;;;;;;;112.50;108.25;35.10;19.60;;;;;;5036577;28;8870;-66
2021/10/29 11:28:35;;;;;;;;;105.00;100.00;35.30;19.20;;;;;;5036686;28;8780;-64
2021/10/29 11:31:06;;;;;;;;;92.00;91.75;35.40;19.10;;;;;;5036713;28;8766;-64
2021/10/29 11:33:33;;;;;;;;;112.75;110.75;35.60;19.10;;;;;;5036407;28;8792;-67
2021/10/29 11:36:08;;;;;;;;;106.00;105.00;35.60;18.70;;;;;;5036272;28;8750;-65
2021/10/29 11:38:36;;;;;;;;;106.75;104.75;35.70;18.70;;;;;;5036390;28;8900;-65
2021/10/29 11:41:05;;;;;;;;;105.25;104.25;35.80;18.80;;;;;;5036280;28;8777;-65
2021/10/29 11:43:32;;;;;;;;;109.75;108.75;36.00;18.50;;;;;;5036079;28;8793;-66
2021/10/29 11:46:00;;;;;;;;;107.00;106.25;35.90;18.30;;;;;;5036409;28;8851;-66
2021/10/29 11:48:27;;;;;;;;;97.50;93.00;35.70;18.40;;;;;;5036436;28;8829;-67
2021/10/29 11:51:09;;;;;;;;;108.75;107.75;35.80;19.40;;;;;;5036409;28;8781;-66
2021/10/29 11:53:40;;;;;;;;;98.00;98.00;36.00;18.60;;;;;;5036307;28;8785;-64
2021/10/29 11:56:23;;;;;;;;;100.00;97.50;36.00;18.50;;;;;;5036034;28;8789;-64
2021/10/29 11:59:12;;;;;;;;;93.75;92.50;36.00;18.60;;;;;;5035937;28;8785;-64
2021/10/29 12:07:23;;;;;;;;;93.00;89.25;35.50;18.60;;;;;;5034741;28;8745;-64
2021/10/29 12:09:50;;;;;;;;;98.25;98.25;35.30;19.00;;;;;;5035904;28;8750;-65
2021/10/29 12:12:22;;;;;;;;;99.50;97.50;35.10;19.00;;;;;;5035755;28;8769;-66
2021/10/29 12:14:50;;;;;;;;;99.00;96.00;34.80;19.20;;;;;;5035772;28;8788;-64
2021/10/29 12:17:28;;;;;;;;;97.25;95.75;34.60;19.40;;;;;;5035876;28;8828;-66
2021/10/29 12:20:02;;;;;;;;;99.75;96.50;34.60;19.50;;;;;;5035766;28;8808;-66
2021/10/29 12:22:52;;;;;;;;;93.75;93.00;34.40;19.40;;;;;;5035601;28;8844;-64
2021/10/29 12:28:25;;;;;;;;;91.50;90.00;33.50;20.00;;;;;;5035475;28;8762;-65
2021/10/29 12:39:08;;;;;;;;;94.50;94.50;33.30;20.10;;;;;;5035357;28;8746;-64
2021/10/29 12:58:58;;;;;;;;;90.75;90.75;32.70;20.80;;;;;;5034940;28;8750;-64
2021/10/29 13:01:36;;;;;;;;;88.00;86.25;32.90;20.90;;;;;;5035006;28;8816;-64
2021/10/29 13:04:13;;;;;;;;;89.00;87.00;32.90;21.10;;;;;;5034789;28;8785;-63
2021/10/29 13:06:43;;;;;;;;;87.75;85.25;33.00;21.00;;;;;;5034816;28;8882;-65
2021/10/29 13:09:18;;;;;;;;;86.50;86.50;32.90;20.90;;;;;;5045024;28;8779;-64
2021/10/29 13:12:04;;;;;;;;;97.75;97.25;32.90;20.60;;;;;;5054536;28;8783;-64
2021/10/29 13:16:58;;;;;;;;;93.75;92.25;32.80;21.30;;;;;;5054481;28;9431;-65
2021/10/29 14:31:54;;;;;;;;;131.00;129.50;24.20;29.90;;;;;;5036818;28;9598;-64
2021/10/29 14:34:26;;;;;;;;;92.25;90.50;24.20;30.10;;;;;;5037674;28;8801;-66
2021/10/29 14:42:07;;;;;;;;;70.75;60.25;24.00;27.40;;;;;;5051694;28;9629;-66
2021/10/29 14:44:50;;;;;;;;;59.25;49.25;23.90;28.00;;;;;;5039300;28;8786;-65
2021/10/29 14:47:44;;;;;;;;;111.25;109.75;23.80;28.20;;;;;;5037912;28;8801;-66
2021/10/29 14:50:24;;;;;;;;;118.00;112.50;23.60;29.50;;;;;;5050481;28;8787;-71
2021/10/29 15:01:37;;;;;;;;;117.00;116.00;22.60;33.10;;;;;;5055989;28;8775;-60
2021/10/29 15:04:09;;;;;;;;;116.00;115.00;22.40;33.60;;;;;;5055816;28;8811;-60
2021/10/29 15:33:46;;;;;;;;;160.25;158.00;20.50;37.80;;;;;;5056479;28;9574;-65
2021/10/29 15:41:49;;;;;;;;;176.75;169.75;20.40;38.20;;;;;;5055278;28;8814;-62
2021/10/29 15:44:22;;;;;;;;;178.75;170.00;20.30;38.50;;;;;;5055707;28;8771;-63
2021/10/29 15:46:59;;;;;;;;;185.00;178.50;20.10;38.40;;;;;;5056105;28;8856;-64
2021/10/29 15:49:41;;;;;;;;;193.75;185.00;20.10;38.60;;;;;;5070212;28;8789;-66
2021/10/29 15:52:13;;;;;;;;;185.25;181.00;20.00;38.90;;;;;;5056046;28;8799;-62
2021/10/29 15:54:51;;;;;;;;;169.50;167.75;20.00;39.00;;;;;;5056239;28;8771;-64
2021/10/29 15:57:24;;;;;;;;;184.50;176.50;19.80;39.00;;;;;;5055934;28;8811;-65
2021/10/29 16:18:49;;;;;;;;;233.25;225.50;19.30;40.60;;;;;;5055604;28;8920;-62
2021/10/29 16:21:15;;;;;;;;;230.50;220.50;19.20;40.80;;;;;;5055641;28;9452;-61
2021/10/29 16:23:40;;;;;;;;;228.75;222.25;19.10;41.00;;;;;;5055327;28;8858;-61
2021/10/29 16:26:10;;;;;;;;;235.50;222.50;19.10;41.20;;;;;;5055364;28;8771;-62
2021/10/29 16:28:37;;;;;;;;;240.75;229.25;19.10;40.80;;;;;;5055226;28;8790;-62
2021/10/29 16:31:03;;;;;;;;;232.25;221.25;19.10;40.90;;;;;;5055446;28;8790;-61
2021/10/29 16:33:33;;;;;;;;;235.75;227.00;19.00;41.20;;;;;;5055452;28;8848;-60
2021/10/29 16:35:59;;;;;;;;;251.75;236.50;19.00;41.40;;;;;;5055094;28;8775;-63
2021/10/29 16:38:25;;;;;;;;;266.50;247.00;18.90;41.40;;;;;;5055430;28;8781;-62
2021/10/29 16:40:51;;;;;;;;;272.50;257.50;18.90;41.60;;;;;;5055023;28;8771;-61
2021/10/29 16:43:18;;;;;;;;;231.00;221.50;18.80;41.80;;;;;;5054923;28;8835;-60
2021/10/29 16:45:47;;;;;;;;;166.50;154.50;18.80;41.80;;;;;;5055009;28;8763;-61
2021/10/29 16:48:15;;;;;;;;;184.50;178.25;18.60;41.90;;;;;;5055325;28;8795;-61
2021/10/29 16:50:42;;;;;;;;;175.75;175.00;18.60;42.10;;;;;;5054919;28;8785;-61
2021/10/29 16:53:08;;;;;;;;;213.50;206.75;18.70;42.00;;;;;;5054243;28;8905;-61
2021/10/29 16:55:34;;;;;;;;;215.00;202.50;18.50;42.10;;;;;;5054818;28;8778;-61
2021/10/29 16:58:00;;;;;;;;;255.50;242.25;18.50;42.30;;;;;;5054699;28;8767;-64
2021/10/29 17:00:26;;;;;;;;;246.75;237.00;18.50;42.30;;;;;;5053526;28;8885;-63
2021/10/29 17:02:52;;;;;;;;;253.00;242.00;18.50;42.30;;;;;;5054492;28;8803;-62
2021/10/29 17:05:18;;;;;;;;;248.50;235.50;18.40;42.40;;;;;;5054627;28;8782;-62
2021/10/29 17:07:44;;;;;;;;;239.00;223.75;18.50;42.40;;;;;;5054876;28;8778;-62
2021/10/29 17:10:12;;;;;;;;;244.25;232.75;18.50;42.30;;;;;;5054591;28;8783;-62